Time;durP1;ratioP1;P1;durP2;ratioP2;P2;SDS_P1;SDS_P2;PMS_P1;PMS_P2;Temp;Humidity;BMP_temperature;BMP_pressure;BME280_temperature;BME280_humidity;BME280_pressure;Samples;Min_cycle;Max_cycle;Signal;HPM_P1;HPM_P2
2024/03/13 00:01:00;;;;;;;;;;;9.60;99.90;;;;;;5001133;28;20457;-74
2024/03/13 00:03:26;;;;;;;;;;;9.50;99.90;;;;;;5003011;28;19994;-73
2024/03/13 00:05:51;;;;;;;;;;;9.50;99.90;;;;;;4998459;28;20005;-73
2024/03/13 00:08:17;;;;;;;;;;;9.40;99.90;;;;;;5002547;28;20462;-73
2024/03/13 00:10:43;;;;;;;;;;;9.40;99.90;;;;;;5002893;28;19987;-73
2024/03/13 00:13:08;;;;;;;;;;;9.40;99.90;;;;;;5002733;28;20076;-73
2024/03/13 00:15:34;;;;;;;;;;;9.40;99.90;;;;;;5004386;28;20454;-75
2024/03/13 00:18:01;;;;;;;;;;;9.30;99.90;;;;;;5008724;28;20568;-74
2024/03/13 00:20:30;;;;;;;;;;;9.20;99.90;;;;;;5002614;28;20843;-73
2024/03/13 00:22:59;;;;;;;;;;;9.20;99.90;;;;;;5000952;28;20101;-72
2024/03/13 00:25:25;;;;;;;;;;;9.20;99.90;;;;;;5002242;28;19995;-76
2024/03/13 00:27:50;;;;;;;;;;;9.10;99.90;;;;;;5002100;28;20065;-73
2024/03/13 00:30:16;;;;;;;;;;;9.00;99.90;;;;;;5001935;28;19990;-73
2024/03/13 00:32:42;;;;;;;;;;;8.90;99.90;;;;;;5002544;28;19990;-73
2024/03/13 00:35:08;;;;;;;;;;;8.90;99.90;;;;;;5006847;28;19982;-72
2024/03/13 00:37:34;;;;;;;;;;;8.80;99.90;;;;;;5002251;28;20016;-74
2024/03/13 00:40:00;;;;;;;;;;;8.70;99.90;;;;;;5007240;28;20849;-73
2024/03/13 00:42:26;;;;;;;;;;;8.70;99.90;;;;;;5007542;28;20021;-73
2024/03/13 00:44:53;;;;;;;;;;;8.60;99.90;;;;;;5001631;28;20657;-74
2024/03/13 00:47:19;;;;;;;;;;;8.70;99.90;;;;;;5001016;28;20001;-73
2024/03/13 00:49:45;;;;;;;;;;;8.60;99.90;;;;;;5007961;28;20478;-75
2024/03/13 00:52:11;;;;;;;;;;;8.50;99.90;;;;;;5011457;28;20074;-73
2024/03/13 00:54:36;;;;;;;;;;;8.50;99.90;;;;;;5005114;28;20013;-73
2024/03/13 00:57:02;;;;;;;;;;;8.50;99.90;;;;;;5010676;28;20017;-73
2024/03/13 00:59:27;;;;;;;;;;;8.40;99.90;;;;;;5006250;28;20084;-73
2024/03/13 01:01:53;;;;;;;;;;;8.50;99.90;;;;;;5012416;28;19997;-73
2024/03/13 01:04:19;;;;;;;;;;;8.50;99.90;;;;;;5005764;28;19997;-75
2024/03/13 01:06:45;;;;;;;;;;;8.70;99.90;;;;;;5005898;28;20037;-73
2024/03/13 01:09:10;;;;;;;;;;;8.80;99.90;;;;;;5006518;28;19990;-75
2024/03/13 01:11:36;;;;;;;;;;;8.90;99.90;;;;;;5005595;28;19995;-73
2024/03/13 01:14:03;;;;;;;;;;;9.10;99.90;;;;;;5007098;28;20048;-75
2024/03/13 01:16:31;;;;;;;;;;;9.10;99.90;;;;;;5002344;28;20029;-73
2024/03/13 01:18:57;;;;;;;;;;;9.10;99.90;;;;;;5007712;28;20010;-74
2024/03/13 01:21:23;;;;;;;;;;;9.00;99.90;;;;;;5006140;28;20000;-74
2024/03/13 01:23:48;;;;;;;;;;;8.90;99.90;;;;;;5009788;28;19994;-73
2024/03/13 01:26:14;;;;;;;;;;;8.80;99.90;;;;;;5007181;28;19998;-73
2024/03/13 01:28:42;;;;;;;;;;;8.70;99.90;;;;;;5005251;28;19994;-74
2024/03/13 01:31:08;;;;;;;;;;;8.60;99.90;;;;;;5005814;28;19997;-73
2024/03/13 01:33:34;;;;;;;;;;;8.50;99.90;;;;;;5006040;28;20136;-75
2024/03/13 01:36:00;;;;;;;;;;;8.50;99.90;;;;;;5006130;28;20030;-74
2024/03/13 01:38:26;;;;;;;;;;;8.40;99.90;;;;;;5006113;28;20159;-75
2024/03/13 01:54:51;;;;;;;;;;;8.00;99.90;;;;;;5010356;28;20460;-74
2024/03/13 01:57:17;;;;;;;;;;;8.00;99.90;;;;;;5000606;28;20029;-75
2024/03/13 02:02:21;;;;;;;;;;;7.90;99.90;;;;;;5007958;28;20018;-73
2024/03/13 02:02:35;;;;;;;;;;;7.90;99.90;;;;;;5001571;28;19994;-75
2024/03/13 02:05:01;;;;;;;;;;;7.80;99.90;;;;;;5003907;28;19991;-74
2024/03/13 02:07:28;;;;;;;;;;;7.70;99.90;;;;;;5004105;28;19997;-73
2024/03/13 02:09:55;;;;;;;;;;;7.70;99.90;;;;;;5004454;28;20048;-73
2024/03/13 02:12:20;;;;;;;;;;;7.70;99.90;;;;;;5004700;28;19991;-74
2024/03/13 02:14:46;;;;;;;;;;;7.70;99.90;;;;;;5002187;28;19997;-74
2024/03/13 02:17:12;;;;;;;;;;;7.70;99.90;;;;;;5005710;28;20408;-73
2024/03/13 02:19:38;;;;;;;;;;;7.70;99.90;;;;;;5007492;28;20764;-73
2024/03/13 02:22:05;;;;;;;;;;;7.70;99.90;;;;;;5004116;28;19994;-72
2024/03/13 02:24:33;;;;;;;;;;;7.70;99.90;;;;;;5004264;28;19994;-74
2024/03/13 02:26:58;;;;;;;;;;;7.70;99.90;;;;;;5003883;28;20080;-73
2024/03/13 02:29:24;;;;;;;;;;;7.70;99.90;;;;;;5002670;28;20013;-73
2024/03/13 02:31:50;;;;;;;;;;;7.70;99.90;;;;;;5007124;28;20033;-74
2024/03/13 02:34:16;;;;;;;;;;;7.70;99.90;;;;;;5003250;28;19987;-74
2024/03/13 02:36:42;;;;;;;;;;;7.60;99.90;;;;;;5005123;28;20555;-74
2024/03/13 02:39:10;;;;;;;;;;;7.70;99.90;;;;;;5008270;28;20109;-74
2024/03/13 02:41:36;;;;;;;;;;;7.60;99.90;;;;;;5004500;28;19999;-75
2024/03/13 02:44:02;;;;;;;;;;;7.60;99.90;;;;;;5010207;28;19994;-74
2024/03/13 02:46:28;;;;;;;;;;;7.60;99.90;;;;;;5003644;28;20370;-73
2024/03/13 02:48:54;;;;;;;;;;;7.50;99.90;;;;;;5003816;28;19990;-74
2024/03/13 02:51:20;;;;;;;;;;;7.50;99.90;;;;;;5007878;28;19990;-74
2024/03/13 02:53:46;;;;;;;;;;;7.50;99.90;;;;;;5003286;28;20537;-73
2024/03/13 02:56:11;;;;;;;;;;;7.50;99.90;;;;;;5005286;28;20018;-73
2024/03/13 02:58:37;;;;;;;;;;;7.50;99.90;;;;;;5002773;28;20366;-72
2024/03/13 03:01:03;;;;;;;;;;;7.50;99.90;;;;;;5004963;28;19994;-74
2024/03/13 03:03:30;;;;;;;;;;;7.50;99.90;;;;;;5004091;28;19998;-73
2024/03/13 03:05:56;;;;;;;;;;;7.40;99.90;;;;;;5004553;28;20402;-73
2024/03/13 03:08:22;;;;;;;;;;;7.40;99.90;;;;;;5003453;28;19997;-74
2024/03/13 03:10:47;;;;;;;;;;;7.30;99.90;;;;;;5003168;28;19996;-73
2024/03/13 03:13:14;;;;;;;;;;;7.40;99.90;;;;;;5003245;28;20045;-73
2024/03/13 03:15:39;;;;;;;;;;;7.40;99.90;;;;;;5001746;28;19990;-74
2024/03/13 03:18:06;;;;;;;;;;;7.30;99.90;;;;;;5003685;28;20013;-73
2024/03/13 03:20:32;;;;;;;;;;;7.30;99.90;;;;;;5003391;28;20517;-74
2024/03/13 03:22:58;;;;;;;;;;;7.30;99.90;;;;;;5002063;28;20073;-72
2024/03/13 03:25:24;;;;;;;;;;;7.30;99.90;;;;;;5001496;28;19997;-74
2024/03/13 03:27:50;;;;;;;;;;;7.20;99.90;;;;;;5004113;28;20440;-73
2024/03/13 03:30:15;;;;;;;;;;;7.20;99.90;;;;;;5004228;28;19990;-73
2024/03/13 03:32:41;;;;;;;;;;;7.10;99.90;;;;;;5002066;28;20037;-73
2024/03/13 03:35:07;;;;;;;;;;;7.10;99.90;;;;;;5007786;28;20045;-74
2024/03/13 03:37:32;;;;;;;;;;;7.20;99.90;;;;;;5002651;28;20049;-72
2024/03/13 03:39:58;;;;;;;;;;;7.10;99.90;;;;;;5004000;28;20037;-73
2024/03/13 03:42:27;;;;;;;;;;;7.10;99.90;;;;;;5003544;28;20021;-73
2024/03/13 03:44:53;;;;;;;;;;;7.10;99.90;;;;;;5003401;28;20101;-73
2024/03/13 03:47:19;;;;;;;;;;;7.00;99.90;;;;;;5002720;28;20910;-73
2024/03/13 03:49:45;;;;;;;;;;;7.00;99.90;;;;;;5007133;28;19995;-75
2024/03/13 03:52:11;;;;;;;;;;;6.90;99.90;;;;;;5000757;28;20021;-75
2024/03/13 03:54:36;;;;;;;;;;;6.90;99.90;;;;;;5001322;28;19986;-73
2024/03/13 03:57:02;;;;;;;;;;;6.90;99.90;;;;;;5004196;28;20490;-74
2024/03/13 03:59:27;;;;;;;;;;;6.90;99.90;;;;;;5004092;28;20099;-73
2024/03/13 04:01:53;;;;;;;;;;;6.90;99.90;;;;;;5000434;28;19995;-72
2024/03/13 04:04:19;;;;;;;;;;;6.80;99.90;;;;;;5002624;28;19991;-73
2024/03/13 04:06:45;;;;;;;;;;;6.90;99.90;;;;;;5002416;28;20052;-73
2024/03/13 04:09:16;;;;;;;;;;;6.80;99.90;;;;;;5002673;28;20002;-73
2024/03/13 04:11:42;;;;;;;;;;;6.80;99.90;;;;;;5000804;28;19998;-73
2024/03/13 04:14:09;;;;;;;;;;;6.70;99.90;;;;;;5002086;28;20040;-72
2024/03/13 04:16:35;;;;;;;;;;;6.80;99.90;;;;;;5002496;28;19998;-74
2024/03/13 04:19:00;;;;;;;;;;;6.70;99.90;;;;;;5004417;28;20006;-73
2024/03/13 04:21:27;;;;;;;;;;;6.70;99.90;;;;;;5002604;28;20068;-73
2024/03/13 04:23:53;;;;;;;;;;;6.70;99.90;;;;;;5002426;28;20343;-75
2024/03/13 04:26:19;;;;;;;;;;;6.70;99.90;;;;;;5004032;28;19999;-72
2024/03/13 04:28:44;;;;;;;;;;;6.70;99.90;;;;;;5011613;28;20925;-74
2024/03/13 04:31:13;;;;;;;;;;;6.60;99.90;;;;;;5005226;28;20857;-74
2024/03/13 04:33:40;;;;;;;;;;;6.60;99.90;;;;;;5006980;28;19998;-73
2024/03/13 04:36:06;;;;;;;;;;;6.60;99.90;;;;;;5006229;28;20041;-73
2024/03/13 04:38:31;;;;;;;;;;;6.50;99.90;;;;;;5009757;28;20947;-74
2024/03/13 04:40:57;;;;;;;;;;;6.50;99.90;;;;;;5014219;28;20048;-74
2024/03/13 04:43:22;;;;;;;;;;;6.50;99.90;;;;;;5013582;28;19990;-73
2024/03/13 04:45:48;;;;;;;;;;;6.50;99.90;;;;;;5011592;28;20599;-73
2024/03/13 04:48:14;;;;;;;;;;;6.60;99.90;;;;;;5037845;28;20029;-73
2024/03/13 04:50:39;;;;;;;;;;;6.60;99.90;;;;;;5005699;28;19990;-73
2024/03/13 04:53:05;;;;;;;;;;;6.50;99.90;;;;;;5037445;28;20002;-74
2024/03/13 04:55:31;;;;;;;;;;;6.50;99.90;;;;;;5006980;28;20078;-73
2024/03/13 04:57:57;;;;;;;;;;;6.50;99.90;;;;;;5006314;28;20021;-73
2024/03/13 05:00:28;;;;;;;;;;;6.50;99.90;;;;;;5006763;28;20417;-74
2024/03/13 05:02:54;;;;;;;;;;;6.50;99.90;;;;;;5005472;28;20045;-73
2024/03/13 05:05:20;;;;;;;;;;;6.50;99.90;;;;;;5005872;28;20517;-76
2024/03/13 05:07:46;;;;;;;;;;;6.40;99.90;;;;;;5005385;28;20484;-74
2024/03/13 05:10:16;;;;;;;;;;;6.40;99.90;;;;;;5005798;28;19994;-73
2024/03/13 05:12:43;;;;;;;;;;;6.40;99.90;;;;;;5005385;28;20728;-73
2024/03/13 05:15:09;;;;;;;;;;;6.40;99.90;;;;;;5005625;28;20017;-73
2024/03/13 05:17:34;;;;;;;;;;;6.40;99.90;;;;;;5008123;28;20913;-75
2024/03/13 05:20:00;;;;;;;;;;;6.30;99.90;;;;;;5005876;28;20006;-73
2024/03/13 05:22:29;;;;;;;;;;;6.30;99.90;;;;;;5007577;28;20092;-73
2024/03/13 05:24:55;;;;;;;;;;;6.30;99.90;;;;;;5002989;28;19994;-73
2024/03/13 05:27:20;;;;;;;;;;;6.30;99.90;;;;;;5007170;28;19986;-74
2024/03/13 05:29:46;;;;;;;;;;;6.30;99.90;;;;;;5004961;28;20041;-73
2024/03/13 05:32:11;;;;;;;;;;;6.20;99.90;;;;;;5008775;28;19986;-73
2024/03/13 05:34:37;;;;;;;;;;;6.20;99.90;;;;;;5009339;28;20084;-73
2024/03/13 05:37:03;;;;;;;;;;;6.10;99.90;;;;;;5004299;28;19990;-74
2024/03/13 05:39:29;;;;;;;;;;;6.10;99.90;;;;;;5005113;28;20152;-73
2024/03/13 05:41:54;;;;;;;;;;;6.00;99.90;;;;;;5002564;28;20005;-73
2024/03/13 05:44:20;;;;;;;;;;;6.10;99.90;;;;;;5004003;28;19998;-73
2024/03/13 05:46:48;;;;;;;;;;;5.90;99.90;;;;;;5000906;28;20100;-72
2024/03/13 05:49:16;;;;;;;;;;;6.00;99.90;;;;;;5009403;28;19990;-72
2024/03/13 05:51:44;;;;;;;;;;;6.00;99.90;;;;;;5013153;28;20001;-72
2024/03/13 05:54:10;;;;;;;;;;;6.00;99.90;;;;;;5012139;28;19991;-73
2024/03/13 05:56:37;;;;;;;;;;;6.00;99.90;;;;;;4998999;28;20575;-72
2024/03/13 05:59:05;;;;;;;;;;;6.00;99.90;;;;;;5002182;28;20018;-72
2024/03/13 06:01:31;;;;;;;;;;;5.90;99.90;;;;;;5001893;28;20005;-73
2024/03/13 06:03:58;;;;;;;;;;;5.90;99.90;;;;;;5002776;28;19995;-72
2024/03/13 06:06:24;;;;;;;;;;;6.00;99.90;;;;;;5003505;28;20044;-73
2024/03/13 06:08:50;;;;;;;;;;;5.90;99.90;;;;;;5004230;28;20006;-73
2024/03/13 06:11:18;;;;;;;;;;;5.80;99.90;;;;;;5001293;28;20065;-72
2024/03/13 06:13:47;;;;;;;;;;;5.90;99.90;;;;;;5003342;28;19998;-73
2024/03/13 06:16:15;;;;;;;;;;;5.90;99.90;;;;;;5001605;28;20180;-73
2024/03/13 06:18:41;;;;;;;;;;;5.90;99.90;;;;;;5001103;28;20010;-72
2024/03/13 06:21:10;;;;;;;;;;;6.00;99.90;;;;;;5017232;28;20076;-73
2024/03/13 06:23:37;;;;;;;;;;;6.30;99.90;;;;;;5005004;28;19994;-72
2024/03/13 06:26:07;;;;;;;;;;;6.60;99.90;;;;;;5005944;28;20088;-72
2024/03/13 06:31:17;;;;;;;;;;;7.10;99.90;;;;;;5003698;28;19998;-73
2024/03/13 06:33:43;;;;;;;;;;;7.00;99.90;;;;;;5003600;28;19994;-73
2024/03/13 06:36:09;;;;;;;;;;;7.10;99.90;;;;;;5002137;28;20505;-72
2024/03/13 06:38:34;;;;;;;;;;;7.20;99.90;;;;;;5002963;28;20101;-73
2024/03/13 06:41:02;;;;;;;;;;;7.60;99.90;;;;;;5003495;28;19994;-72
2024/03/13 06:43:29;;;;;;;;;;;7.90;99.90;;;;;;5002284;28;19995;-74
2024/03/13 06:45:54;;;;;;;;;;;8.20;99.90;;;;;;5001167;28;20006;-75
2024/03/13 06:48:20;;;;;;;;;;;8.40;99.90;;;;;;4996070;28;20013;-75
2024/03/13 06:50:46;;;;;;;;;;;8.50;99.90;;;;;;5001511;28;19991;-74
2024/03/13 06:53:12;;;;;;;;;;;8.80;99.90;;;;;;4995073;28;19995;-73
2024/03/13 06:55:37;;;;;;;;;;;9.10;99.90;;;;;;5001523;28;19994;-73
2024/03/13 06:58:04;;;;;;;;;;;9.40;99.90;;;;;;5003615;28;20014;-75
2024/03/13 07:00:32;;;;;;;;;;;9.70;99.90;;;;;;5003404;28;19994;-74
2024/03/13 07:03:04;;;;;;;;;;;9.60;99.90;;;;;;5003752;28;19997;-73
2024/03/13 07:05:29;;;;;;;;;;;9.80;99.90;;;;;;5002267;28;19990;-75
2024/03/13 07:07:55;;;;;;;;;;;9.90;99.90;;;;;;5003847;28;20489;-76
2024/03/13 07:10:21;;;;;;;;;;;10.10;99.90;;;;;;5003346;28;20552;-75
2024/03/13 07:12:48;;;;;;;;;;;10.30;99.90;;;;;;5003342;28;19990;-74
2024/03/13 07:15:13;;;;;;;;;;;10.60;99.90;;;;;;5003580;28;20061;-76
2024/03/13 07:17:39;;;;;;;;;;;10.90;99.90;;;;;;5008733;28;19994;-76
2024/03/13 07:20:05;;;;;;;;;;;11.00;99.90;;;;;;5003866;28;20501;-74
2024/03/13 07:22:30;;;;;;;;;;;11.10;99.90;;;;;;5002846;28;20774;-74
2024/03/13 07:24:56;;;;;;;;;;;11.20;99.90;;;;;;5004028;28;19998;-74
2024/03/13 07:27:22;;;;;;;;;;;11.00;99.40;;;;;;4992131;28;20082;-75
2024/03/13 07:29:49;;;;;;;;;;;11.20;98.90;;;;;;4996393;28;20486;-73
2024/03/13 07:32:16;;;;;;;;;;;11.80;97.90;;;;;;5008368;28;20435;-75
2024/03/13 07:34:42;;;;;;;;;;;11.90;97.20;;;;;;5007200;28;19990;-74
2024/03/13 07:37:10;;;;;;;;;;;11.90;97.40;;;;;;5002545;28;19990;-73
2024/03/13 07:39:35;;;;;;;;;;;11.90;97.10;;;;;;4992363;28;20010;-74
2024/03/13 07:42:01;;;;;;;;;;;12.50;96.40;;;;;;5002199;28;20017;-75
2024/03/13 07:44:27;;;;;;;;;;;12.70;95.70;;;;;;5001378;28;20093;-73
2024/03/13 07:46:52;;;;;;;;;;;13.00;94.90;;;;;;5003604;28;20069;-73
2024/03/13 07:49:18;;;;;;;;;;;13.00;94.70;;;;;;5003339;28;19986;-73
2024/03/13 07:51:45;;;;;;;;;;;13.10;94.30;;;;;;5009592;28;20816;-74
2024/03/13 07:54:10;;;;;;;;;;;12.90;94.40;;;;;;5006185;28;20025;-75
2024/03/13 07:56:37;;;;;;;;;;;13.10;93.90;;;;;;5002734;28;20072;-73
2024/03/13 07:59:06;;;;;;;;;;;13.40;93.70;;;;;;5007859;28;20006;-74
2024/03/13 08:01:38;;;;;;;;;;;13.40;92.80;;;;;;5003074;28;20062;-74
2024/03/13 08:04:04;;;;;;;;;;;13.70;92.40;;;;;;5008611;28;20112;-75
2024/03/13 08:06:30;;;;;;;;;;;13.80;92.10;;;;;;5003605;28;19997;-75
2024/03/13 08:08:55;;;;;;;;;;;13.70;91.20;;;;;;5003168;28;19998;-75
2024/03/13 08:11:21;;;;;;;;;;;14.00;91.10;;;;;;5003144;28;19990;-74
2024/03/13 08:13:46;;;;;;;;;;;14.30;90.60;;;;;;5003923;28;19990;-75
2024/03/13 08:16:12;;;;;;;;;;;14.60;90.20;;;;;;5004487;28;19990;-74
2024/03/13 08:18:39;;;;;;;;;;;14.90;87.90;;;;;;5006063;28;20014;-73
2024/03/13 08:21:05;;;;;;;;;;;15.00;88.70;;;;;;5004483;28;20024;-74
2024/03/13 08:23:30;;;;;;;;;;;14.80;88.00;;;;;;5004193;28;20024;-73
2024/03/13 08:25:56;;;;;;;;;;;15.00;86.00;;;;;;5002880;28;20122;-73
2024/03/13 08:28:21;;;;;;;;;;;14.90;87.50;;;;;;5003079;28;19987;-74
2024/03/13 08:30:47;;;;;;;;;;;14.80;87.10;;;;;;5003105;28;19993;-74
2024/03/13 08:33:15;;;;;;;;;;;15.10;85.80;;;;;;5012180;28;19991;-73
2024/03/13 08:35:41;;;;;;;;;;;15.10;86.40;;;;;;5005290;28;19990;-75
2024/03/13 08:38:08;;;;;;;;;;;15.60;85.20;;;;;;5005278;28;20013;-74
2024/03/13 08:40:34;;;;;;;;;;;15.60;83.60;;;;;;4998811;28;20048;-74
2024/03/13 08:43:00;;;;;;;;;;;15.70;84.80;;;;;;5002995;28;19990;-75
2024/03/13 08:45:26;;;;;;;;;;;15.30;84.00;;;;;;5003201;28;20025;-76
2024/03/13 08:47:53;;;;;;;;;;;15.60;82.50;;;;;;5004794;28;19990;-74
2024/03/13 08:50:19;;;;;;;;;;;15.50;81.90;;;;;;5003524;28;19998;-73
2024/03/13 08:52:45;;;;;;;;;;;15.30;81.40;;;;;;5004234;28;20777;-75
2024/03/13 08:55:10;;;;;;;;;;;15.50;81.50;;;;;;5005369;28;20060;-73
2024/03/13 08:57:36;;;;;;;;;;;15.60;82.80;;;;;;5004445;28;20121;-73
2024/03/13 09:00:03;;;;;;;;;;;15.60;83.10;;;;;;5002863;28;20120;-74
2024/03/13 09:02:29;;;;;;;;;;;16.10;80.30;;;;;;5001112;28;20022;-74
2024/03/13 09:04:55;;;;;;;;;;;16.60;80.70;;;;;;5003189;28;20070;-74
2024/03/13 09:07:21;;;;;;;;;;;16.70;79.70;;;;;;5000788;28;19994;-74
2024/03/13 09:09:47;;;;;;;;;;;16.80;78.00;;;;;;5010169;28;19994;-74
2024/03/13 09:12:15;;;;;;;;;;;17.20;77.00;;;;;;5007283;28;19991;-74
2024/03/13 09:14:41;;;;;;;;;;;17.00;75.70;;;;;;5006961;28;19990;-76
2024/03/13 09:17:06;;;;;;;;;;;17.10;76.90;;;;;;5008517;28;20012;-74
2024/03/13 09:19:37;;;;;;;;;;;17.20;75.00;;;;;;5006974;28;20013;-74
2024/03/13 09:22:04;;;;;;;;;;;17.40;74.70;;;;;;5005873;28;19994;-74
2024/03/13 09:24:29;;;;;;;;;;;17.90;73.50;;;;;;5005573;28;19994;-75
2024/03/13 09:26:56;;;;;;;;;;;17.80;71.80;;;;;;5007739;28;19995;-76
2024/03/13 09:29:23;;;;;;;;;;;18.20;72.10;;;;;;5007901;28;20081;-75
2024/03/13 09:31:48;;;;;;;;;;;18.70;70.60;;;;;;5005779;28;20355;-74
2024/03/13 09:34:14;;;;;;;;;;;18.80;69.30;;;;;;5011783;28;20068;-74
2024/03/13 09:36:39;;;;;;;;;;;19.20;68.20;;;;;;5007387;28;20448;-76
2024/03/13 09:39:06;;;;;;;;;;;19.70;67.80;;;;;;5008348;28;20443;-78
2024/03/13 09:41:32;;;;;;;;;;;19.40;66.90;;;;;;5006899;28;19994;-74
2024/03/13 09:43:59;;;;;;;;;;;19.70;66.50;;;;;;5007050;28;19993;-74
2024/03/13 09:46:27;;;;;;;;;;;19.20;64.50;;;;;;5007096;28;20496;-75
2024/03/13 09:48:54;;;;;;;;;;;19.10;64.30;;;;;;5007389;28;19995;-74
2024/03/13 09:51:22;;;;;;;;;;;19.10;65.20;;;;;;5007611;28;20068;-77
2024/03/13 09:53:52;;;;;;;;;;;19.30;66.20;;;;;;5005920;28;20041;-73
2024/03/13 09:56:19;;;;;;;;;;;19.20;65.10;;;;;;5005936;28;20085;-73
2024/03/13 09:58:46;;;;;;;;;;;18.60;64.00;;;;;;5007365;28;20033;-75
2024/03/13 10:01:17;;;;;;;;;;;18.10;67.30;;;;;;5007199;28;19994;-74
2024/03/13 10:03:46;;;;;;;;;;;17.20;68.20;;;;;;5008970;28;20370;-73
2024/03/13 10:06:13;;;;;;;;;;;16.50;67.90;;;;;;5007843;28;20446;-74
2024/03/13 10:08:42;;;;;;;;;;;16.20;71.60;;;;;;5010450;28;19986;-73
2024/03/13 10:11:09;;;;;;;;;;;16.40;74.50;;;;;;5008603;28;19986;-74
2024/03/13 10:13:37;;;;;;;;;;;16.20;73.30;;;;;;5005323;28;20093;-74
2024/03/13 10:16:03;;;;;;;;;;;15.80;71.20;;;;;;5008661;28;19994;-73
2024/03/13 10:18:29;;;;;;;;;;;16.10;72.40;;;;;;5009037;28;20010;-73
2024/03/13 10:21:15;;;;;;;;;;;16.20;71.20;;;;;;5009306;28;19999;-74
2024/03/13 10:23:44;;;;;;;;;;;16.20;72.40;;;;;;5004557;28;20112;-73
2024/03/13 10:26:11;;;;;;;;;;;16.00;71.40;;;;;;5009158;28;20466;-77
2024/03/13 10:28:37;;;;;;;;;;;16.50;72.40;;;;;;5005806;28;19990;-74
2024/03/13 10:31:04;;;;;;;;;;;16.40;71.40;;;;;;5006315;28;19986;-72
2024/03/13 10:33:30;;;;;;;;;;;16.30;71.50;;;;;;5018407;28;20030;-75
2024/03/13 10:35:56;;;;;;;;;;;16.00;71.70;;;;;;5006119;28;20069;-76
2024/03/13 10:38:22;;;;;;;;;;;15.90;73.00;;;;;;5006102;28;20274;-76
2024/03/13 10:40:48;;;;;;;;;;;16.00;72.40;;;;;;5005622;28;20469;-74
2024/03/13 10:43:14;;;;;;;;;;;16.10;71.50;;;;;;5004281;28;19994;-75
2024/03/13 10:45:40;;;;;;;;;;;16.50;72.30;;;;;;5004578;28;20988;-75
2024/03/13 10:48:10;;;;;;;;;;;16.30;71.10;;;;;;5004298;28;19994;-74
2024/03/13 10:50:35;;;;;;;;;;;16.60;74.60;;;;;;5007654;28;19995;-74
2024/03/13 10:53:02;;;;;;;;;;;16.10;70.70;;;;;;5004391;28;19990;-75
2024/03/13 10:55:28;;;;;;;;;;;16.10;72.00;;;;;;5003850;28;19994;-73
2024/03/13 10:57:53;;;;;;;;;;;16.20;73.00;;;;;;5004155;28;20107;-74
2024/03/13 11:00:21;;;;;;;;;;;16.50;73.70;;;;;;5006237;28;19998;-75
2024/03/13 11:02:49;;;;;;;;;;;16.30;72.30;;;;;;5003948;28;20037;-74
2024/03/13 11:05:15;;;;;;;;;;;16.30;70.70;;;;;;5004469;28;19995;-74
2024/03/13 11:07:40;;;;;;;;;;;16.10;71.00;;;;;;5005221;28;20013;-75
2024/03/13 11:10:10;;;;;;;;;;;16.10;70.30;;;;;;5011063;28;19998;-73
2024/03/13 11:12:37;;;;;;;;;;;16.40;72.80;;;;;;5006597;28;19993;-74
2024/03/13 11:15:06;;;;;;;;;;;16.30;70.00;;;;;;5004277;28;19997;-73
2024/03/13 11:17:33;;;;;;;;;;;16.00;68.80;;;;;;5005077;28;20036;-75
2024/03/13 11:20:07;;;;;;;;;;;16.00;70.10;;;;;;5003574;28;20011;-74
2024/03/13 11:22:34;;;;;;;;;;;15.90;71.00;;;;;;5007021;28;19997;-73
2024/03/13 11:25:06;;;;;;;;;;;16.00;70.90;;;;;;5004178;28;20097;-76
2024/03/13 11:27:33;;;;;;;;;;;16.20;70.10;;;;;;5006244;28;19987;-76
2024/03/13 11:30:03;;;;;;;;;;;16.30;70.70;;;;;;5005223;28;19991;-73
2024/03/13 11:32:30;;;;;;;;;;;16.20;69.20;;;;;;5011366;28;20453;-75
2024/03/13 11:34:56;;;;;;;;;;;16.10;71.40;;;;;;5003468;28;20002;-75
2024/03/13 11:37:23;;;;;;;;;;;16.40;70.50;;;;;;5005475;28;19991;-75
2024/03/13 11:39:52;;;;;;;;;;;15.90;66.40;;;;;;5005378;28;20766;-74
2024/03/13 11:42:18;;;;;;;;;;;16.00;70.10;;;;;;5005218;28;20669;-73
2024/03/13 11:44:50;;;;;;;;;;;16.10;68.40;;;;;;5002321;28;19990;-73
2024/03/13 11:47:21;;;;;;;;;;;16.20;67.90;;;;;;5006532;28;19994;-75
2024/03/13 11:49:51;;;;;;;;;;;16.10;68.40;;;;;;5001078;28;20069;-74
2024/03/13 11:52:17;;;;;;;;;;;16.00;70.10;;;;;;5005203;28;19990;-74
2024/03/13 11:54:43;;;;;;;;;;;16.00;71.20;;;;;;5004638;28;19997;-73
2024/03/13 11:57:12;;;;;;;;;;;16.00;68.90;;;;;;5003038;28;20026;-73
2024/03/13 11:59:50;;;;;;;;;;;16.00;69.20;;;;;;5003225;28;20017;-73
2024/03/13 12:02:27;;;;;;;;;;;16.10;70.50;;;;;;5004777;28;20466;-74
2024/03/13 12:04:54;;;;;;;;;;;16.20;71.60;;;;;;5005172;28;19986;-73
2024/03/13 12:07:19;;;;;;;;;;;16.20;70.10;;;;;;5003881;28;19997;-73
2024/03/13 12:09:46;;;;;;;;;;;16.20;70.30;;;;;;5008433;28;19994;-77
2024/03/13 12:12:13;;;;;;;;;;;16.00;68.10;;;;;;5003228;28;19991;-75
2024/03/13 12:14:39;;;;;;;;;;;15.80;68.70;;;;;;5004877;28;19993;-74
2024/03/13 12:17:09;;;;;;;;;;;16.00;70.70;;;;;;5008719;28;20001;-76
2024/03/13 12:19:35;;;;;;;;;;;16.10;69.30;;;;;;5003991;28;20010;-76
2024/03/13 12:22:04;;;;;;;;;;;15.90;66.70;;;;;;5001739;28;19998;-74
2024/03/13 12:24:29;;;;;;;;;;;16.10;68.80;;;;;;5005832;28;19996;-76
2024/03/13 12:26:58;;;;;;;;;;;16.00;66.60;;;;;;5003426;28;19994;-77
2024/03/13 12:29:28;;;;;;;;;;;15.90;67.80;;;;;;5005402;28;20568;-74
2024/03/13 12:31:53;;;;;;;;;;;15.90;67.60;;;;;;5008165;28;20457;-73
2024/03/13 12:34:19;;;;;;;;;;;16.00;67.20;;;;;;5006929;28;20065;-75
2024/03/13 12:36:45;;;;;;;;;;;16.00;68.50;;;;;;5003269;28;19994;-76
2024/03/13 12:39:10;;;;;;;;;;;16.30;68.20;;;;;;5002882;28;20010;-75
2024/03/13 12:41:36;;;;;;;;;;;16.10;66.20;;;;;;5004815;28;19994;-75
2024/03/13 12:44:04;;;;;;;;;;;16.00;65.10;;;;;;5005028;28;20001;-75
2024/03/13 12:46:30;;;;;;;;;;;16.20;66.40;;;;;;5003155;28;19998;-74
2024/03/13 12:48:55;;;;;;;;;;;16.30;65.10;;;;;;5006960;28;20048;-75
2024/03/13 12:51:21;;;;;;;;;;;16.20;65.70;;;;;;5008765;28;20514;-73
2024/03/13 12:53:47;;;;;;;;;;;16.40;68.00;;;;;;5008651;28;19990;-74
2024/03/13 12:56:12;;;;;;;;;;;16.30;66.20;;;;;;5007509;28;20021;-76
2024/03/13 12:58:39;;;;;;;;;;;16.30;65.40;;;;;;5007646;28;20010;-73
2024/03/13 13:01:08;;;;;;;;;;;16.40;65.10;;;;;;5008365;28;20088;-74
2024/03/13 13:03:35;;;;;;;;;;;16.40;68.80;;;;;;5006493;28;19995;-73
2024/03/13 13:06:01;;;;;;;;;;;16.40;67.70;;;;;;5007894;28;20029;-76
2024/03/13 13:08:28;;;;;;;;;;;16.50;68.00;;;;;;5007531;28;20465;-75
2024/03/13 13:10:55;;;;;;;;;;;16.30;65.90;;;;;;5009566;28;19991;-75
2024/03/13 13:13:20;;;;;;;;;;;16.40;65.70;;;;;;5009438;28;19990;-76
2024/03/13 13:15:46;;;;;;;;;;;16.30;64.60;;;;;;5006030;28;19997;-74
2024/03/13 13:18:13;;;;;;;;;;;16.40;65.10;;;;;;5007228;28;20013;-77
2024/03/13 13:20:39;;;;;;;;;;;16.40;66.60;;;;;;5005919;28;20054;-73
2024/03/13 13:23:05;;;;;;;;;;;16.40;68.00;;;;;;5007218;28;20009;-74
2024/03/13 13:25:30;;;;;;;;;;;16.40;65.60;;;;;;5005788;28;20539;-76
2024/03/13 13:27:57;;;;;;;;;;;16.50;67.60;;;;;;5004516;28;20013;-74
2024/03/13 13:30:23;;;;;;;;;;;16.50;65.90;;;;;;5005881;28;20113;-73
2024/03/13 13:32:51;;;;;;;;;;;16.50;64.10;;;;;;5013547;28;20499;-75
2024/03/13 13:35:16;;;;;;;;;;;16.30;65.00;;;;;;5005821;28;20110;-73
2024/03/13 13:37:44;;;;;;;;;;;16.40;65.40;;;;;;5005864;28;20097;-76
2024/03/13 13:40:12;;;;;;;;;;;16.50;68.80;;;;;;5005404;28;20816;-75
2024/03/13 13:42:39;;;;;;;;;;;16.60;69.80;;;;;;5006088;28;20423;-74
2024/03/13 13:45:04;;;;;;;;;;;16.70;67.20;;;;;;5007713;28;20429;-74
2024/03/13 13:47:31;;;;;;;;;;;16.70;67.90;;;;;;5005400;28;20085;-76
2024/03/13 13:49:57;;;;;;;;;;;16.60;64.90;;;;;;5005779;28;19991;-74
2024/03/13 13:52:23;;;;;;;;;;;16.50;65.20;;;;;;5009976;28;20001;-76
2024/03/13 13:54:49;;;;;;;;;;;16.50;66.50;;;;;;5008304;28;19998;-74
2024/03/13 13:57:15;;;;;;;;;;;16.60;66.30;;;;;;5005511;28;20033;-76
2024/03/13 13:59:42;;;;;;;;;;;16.50;63.70;;;;;;5000999;28;20016;-74
2024/03/13 14:02:11;;;;;;;;;;;16.40;64.40;;;;;;5005766;28;20033;-74
2024/03/13 14:04:37;;;;;;;;;;;16.70;67.10;;;;;;5005408;28;20512;-74
2024/03/13 14:07:02;;;;;;;;;;;16.70;64.10;;;;;;5009628;28;19990;-75
2024/03/13 14:09:29;;;;;;;;;;;16.60;65.70;;;;;;5009429;28;20044;-74
2024/03/13 14:11:55;;;;;;;;;;;16.40;63.80;;;;;;5008188;28;20270;-74
2024/03/13 14:14:21;;;;;;;;;;;16.60;66.20;;;;;;5005041;28;20556;-74
2024/03/13 14:16:47;;;;;;;;;;;16.50;64.70;;;;;;5012536;28;19990;-75
2024/03/13 14:19:14;;;;;;;;;;;16.60;66.20;;;;;;5009435;28;20821;-74
2024/03/13 14:21:40;;;;;;;;;;;16.70;65.30;;;;;;5006059;28;20277;-76
2024/03/13 14:24:06;;;;;;;;;;;16.80;64.00;;;;;;5007411;28;20493;-75
2024/03/13 14:26:32;;;;;;;;;;;16.60;62.90;;;;;;5008315;28;19990;-73
2024/03/13 14:28:57;;;;;;;;;;;16.50;62.80;;;;;;5005691;28;19990;-74
2024/03/13 14:31:23;;;;;;;;;;;16.60;64.80;;;;;;5001117;28;19990;-73
2024/03/13 14:33:48;;;;;;;;;;;16.70;64.00;;;;;;5014762;28;20575;-73
2024/03/13 14:36:14;;;;;;;;;;;16.60;64.90;;;;;;5005757;28;20032;-78